sensor_id;sensor_type;location;lat;lon;timestamp;pressure;altitude;pressure_sealevel;temperature;humidity
17649;BME280;8943;51.110;-4.158;2023-04-29T08:02:20;101582.03;;;19.91;54.98
17649;BME280;8943;51.110;-4.158;2023-04-29T08:04:49;101576.56;;;20.01;54.92
17649;BME280;8943;51.110;-4.158;2023-04-29T08:07:21;101577.91;;;20.05;54.93
17649;BME280;8943;51.110;-4.158;2023-04-29T08:09:49;101572.22;;;20.08;54.20
17649;BME280;8943;51.110;-4.158;2023-04-29T08:12:18;101574.75;;;20.10;54.27
17649;BME280;8943;51.110;-4.158;2023-04-29T08:14:46;101586.50;;;20.18;54.53
17649;BME280;8943;51.110;-4.158;2023-04-29T08:17:14;101588.00;;;20.30;54.52
17649;BME280;8943;51.110;-4.158;2023-04-29T08:19:45;101590.75;;;20.39;54.19
17649;BME280;8943;51.110;-4.158;2023-04-29T08:22:13;101581.81;;;20.56;54.21
17649;BME280;8943;51.110;-4.158;2023-04-29T08:24:41;101586.81;;;20.69;54.07
17649;BME280;8943;51.110;-4.158;2023-04-29T08:27:10;101593.69;;;20.81;53.86
17649;BME280;8943;51.110;-4.158;2023-04-29T08:29:40;101591.63;;;21.01;53.47
17649;BME280;8943;51.110;-4.158;2023-04-29T08:32:09;101596.63;;;21.14;53.39
17649;BME280;8943;51.110;-4.158;2023-04-29T08:34:38;101597.84;;;21.27;52.94
17649;BME280;8943;51.110;-4.158;2023-04-29T08:37:09;101602.03;;;21.40;52.96
17649;BME280;8943;51.110;-4.158;2023-04-29T08:39:37;101597.34;;;21.50;52.45
17649;BME280;8943;51.110;-4.158;2023-04-29T08:42:09;101600.41;;;21.55;52.35
17649;BME280;8943;51.110;-4.158;2023-04-29T08:44:39;101607.06;;;21.69;52.00
17649;BME280;8943;51.110;-4.158;2023-04-29T08:47:08;101598.81;;;21.78;52.01
17649;BME280;8943;51.110;-4.158;2023-04-29T08:49:36;101598.31;;;21.83;51.77
17649;BME280;8943;51.110;-4.158;2023-04-29T08:52:05;101608.19;;;21.92;51.30
17649;BME280;8943;51.110;-4.158;2023-04-29T08:54:36;101606.84;;;21.96;50.79
17649;BME280;8943;51.110;-4.158;2023-04-29T08:57:04;101608.88;;;22.02;50.60
17649;BME280;8943;51.110;-4.158;2023-04-29T08:59:35;101606.91;;;22.13;50.47
17649;BME280;8943;51.110;-4.158;2023-04-29T09:02:05;101614.53;;;22.17;50.13
17649;BME280;8943;51.110;-4.158;2023-04-29T09:04:46;101614.19;;;22.20;49.74
17649;BME280;8943;51.110;-4.158;2023-04-29T09:07:20;101625.56;;;22.24;49.47
17649;BME280;8943;51.110;-4.158;2023-04-29T09:09:51;101615.41;;;22.26;49.39
17649;BME280;8943;51.110;-4.158;2023-04-29T09:12:21;101620.84;;;22.34;49.39
17649;BME280;8943;51.110;-4.158;2023-04-29T09:14:49;101615.25;;;22.44;49.24
17649;BME280;8943;51.110;-4.158;2023-04-29T09:17:18;101619.13;;;22.49;48.91
17649;BME280;8943;51.110;-4.158;2023-04-29T09:19:46;101616.44;;;22.49;48.72
17649;BME280;8943;51.110;-4.158;2023-04-29T09:22:15;101612.88;;;22.57;48.68
17649;BME280;8943;51.110;-4.158;2023-04-29T09:24:44;101612.03;;;22.65;48.25
17649;BME280;8943;51.110;-4.158;2023-04-29T09:27:26;101606.94;;;22.61;48.01
17649;BME280;8943;51.110;-4.158;2023-04-29T09:29:59;101608.31;;;22.66;47.83
17649;BME280;8943;51.110;-4.158;2023-04-29T09:32:28;101608.13;;;22.59;47.95
17649;BME280;8943;51.110;-4.158;2023-04-29T09:34:56;101605.91;;;22.62;47.86
17649;BME280;8943;51.110;-4.158;2023-04-29T09:37:26;101602.69;;;22.67;47.50
17649;BME280;8943;51.110;-4.158;2023-04-29T09:39:55;101603.34;;;22.69;47.57
17649;BME280;8943;51.110;-4.158;2023-04-29T09:42:25;101595.19;;;22.77;47.23
17649;BME280;8943;51.110;-4.158;2023-04-29T09:44:53;101593.03;;;22.89;46.89
17649;BME280;8943;51.110;-4.158;2023-04-29T09:47:29;101602.50;;;22.93;46.63
17649;BME280;8943;51.110;-4.158;2023-04-29T09:50:10;101602.31;;;23.03;46.62
17649;BME280;8943;51.110;-4.158;2023-04-29T09:52:41;101596.88;;;23.11;46.50
17649;BME280;8943;51.110;-4.158;2023-04-29T09:55:10;101609.09;;;23.23;46.10
17649;BME280;8943;51.110;-4.158;2023-04-29T09:57:42;101599.56;;;23.27;45.90
17649;BME280;8943;51.110;-4.158;2023-04-29T10:00:12;101611.78;;;23.31;45.90
17649;BME280;8943;51.110;-4.158;2023-04-29T10:02:41;101608.84;;;23.41;45.89
17649;BME280;8943;51.110;-4.158;2023-04-29T10:05:13;101604.91;;;23.52;45.71
17649;BME280;8943;51.110;-4.158;2023-04-29T10:07:42;101605.91;;;23.59;45.73
17649;BME280;8943;51.110;-4.158;2023-04-29T10:10:16;101596.06;;;23.58;44.83
17649;BME280;8943;51.110;-4.158;2023-04-29T10:12:47;101609.69;;;23.50;44.69
17649;BME280;8943;51.110;-4.158;2023-04-29T10:15:22;101609.75;;;23.33;44.28
17649;BME280;8943;51.110;-4.158;2023-04-29T10:17:57;101611.00;;;23.15;44.40
17649;BME280;8943;51.110;-4.158;2023-04-29T10:20:28;101612.53;;;22.93;44.10
17649;BME280;8943;51.110;-4.158;2023-04-29T10:22:57;101614.91;;;22.71;44.39
17649;BME280;8943;51.110;-4.158;2023-04-29T10:25:28;101621.34;;;22.54;44.33
17649;BME280;8943;51.110;-4.158;2023-04-29T10:28:00;101620.31;;;22.39;44.41
17649;BME280;8943;51.110;-4.158;2023-04-29T10:30:31;101625.44;;;22.25;44.72
17649;BME280;8943;51.110;-4.158;2023-04-29T10:33:00;101631.34;;;22.21;44.65
17649;BME280;8943;51.110;-4.158;2023-04-29T10:35:30;101629.50;;;22.21;44.99
17649;BME280;8943;51.110;-4.158;2023-04-29T10:38:00;101630.13;;;22.15;44.63
17649;BME280;8943;51.110;-4.158;2023-04-29T10:40:41;101624.66;;;22.07;44.94
17649;BME280;8943;51.110;-4.158;2023-04-29T10:43:14;101628.03;;;22.01;45.00
17649;BME280;8943;51.110;-4.158;2023-04-29T10:45:42;101628.53;;;22.04;44.94
17649;BME280;8943;51.110;-4.158;2023-04-29T10:48:15;101638.06;;;22.08;45.08
17649;BME280;8943;51.110;-4.158;2023-04-29T10:51:00;101634.22;;;22.11;45.14
17649;BME280;8943;51.110;-4.158;2023-04-29T10:53:32;101634.22;;;22.19;44.86
17649;BME280;8943;51.110;-4.158;2023-04-29T10:56:07;101638.97;;;22.17;45.06
17649;BME280;8943;51.110;-4.158;2023-04-29T10:58:41;101634.72;;;22.15;44.70
17649;BME280;8943;51.110;-4.158;2023-04-29T11:01:11;101635.22;;;22.18;44.45
17649;BME280;8943;51.110;-4.158;2023-04-29T11:03:51;101638.28;;;22.15;45.05
17649;BME280;8943;51.110;-4.158;2023-04-29T11:06:22;101643.56;;;22.17;44.94
17649;BME280;8943;51.110;-4.158;2023-04-29T11:09:00;101641.50;;;22.19;44.78
17649;BME280;8943;51.110;-4.158;2023-04-29T11:11:57;101643.38;;;22.18;44.79
17649;BME280;8943;51.110;-4.158;2023-04-29T11:14:29;101630.66;;;22.19;44.49
17649;BME280;8943;51.110;-4.158;2023-04-29T11:17:00;101634.06;;;22.21;44.76
17649;BME280;8943;51.110;-4.158;2023-04-29T11:19:31;101631.53;;;22.27;44.89
17649;BME280;8943;51.110;-4.158;2023-04-29T11:22:11;101636.81;;;22.37;44.83
17649;BME280;8943;51.110;-4.158;2023-04-29T11:24:50;101630.19;;;22.48;44.45
17649;BME280;8943;51.110;-4.158;2023-04-29T11:27:23;101622.38;;;22.53;44.58
17649;BME280;8943;51.110;-4.158;2023-04-29T11:29:55;101631.91;;;22.57;44.20
17649;BME280;8943;51.110;-4.158;2023-04-29T11:32:26;101624.09;;;22.62;44.21
17649;BME280;8943;51.110;-4.158;2023-04-29T11:35:09;101624.75;;;22.64;43.88
17649;BME280;8943;51.110;-4.158;2023-04-29T11:37:40;101628.00;;;22.59;43.97
17649;BME280;8943;51.110;-4.158;2023-04-29T11:40:09;101632.41;;;22.52;43.65
17649;BME280;8943;51.110;-4.158;2023-04-29T11:42:43;101634.59;;;22.41;43.58
17649;BME280;8943;51.110;-4.158;2023-04-29T11:45:13;101634.25;;;22.27;43.53
17649;BME280;8943;51.110;-4.158;2023-04-29T11:47:45;101628.13;;;22.17;43.78
17649;BME280;8943;51.110;-4.158;2023-04-29T11:50:15;101635.34;;;22.08;43.84
17649;BME280;8943;51.110;-4.158;2023-04-29T11:52:47;101633.84;;;22.06;43.91
17649;BME280;8943;51.110;-4.158;2023-04-29T11:55:16;101631.75;;;22.00;43.99
17649;BME280;8943;51.110;-4.158;2023-04-29T11:57:48;101632.75;;;21.91;43.98
17649;BME280;8943;51.110;-4.158;2023-04-29T12:00:19;101628.19;;;21.99;44.31
17649;BME280;8943;51.110;-4.158;2023-04-29T12:02:48;101615.22;;;22.19;44.82
17649;BME280;8943;51.110;-4.158;2023-04-29T12:05:17;101617.78;;;22.53;44.87
17649;BME280;8943;51.110;-4.158;2023-04-29T12:07:48;101620.31;;;22.87;44.40
17649;BME280;8943;51.110;-4.158;2023-04-29T12:10:17;101622.38;;;23.18;43.88
17649;BME280;8943;51.110;-4.158;2023-04-29T12:12:47;101626.53;;;23.37;43.14
17649;BME280;8943;51.110;-4.158;2023-04-29T12:15:16;101627.19;;;23.47;42.63
17649;BME280;8943;51.110;-4.158;2023-04-29T12:17:46;101612.59;;;23.48;42.36
17649;BME280;8943;51.110;-4.158;2023-04-29T12:20:14;101617.19;;;23.48;41.91
17649;BME280;8943;51.110;-4.158;2023-04-29T12:22:43;101620.91;;;23.47;41.95
17649;BME280;8943;51.110;-4.158;2023-04-29T12:25:14;101621.94;;;23.46;42.08
17649;BME280;8943;51.110;-4.158;2023-04-29T12:27:44;101623.94;;;23.52;42.17
17649;BME280;8943;51.110;-4.158;2023-04-29T12:30:13;101631.59;;;23.56;41.98
17649;BME280;8943;51.110;-4.158;2023-04-29T12:32:41;101634.69;;;23.53;41.15
17649;BME280;8943;51.110;-4.158;2023-04-29T12:35:17;101624.84;;;23.44;41.42
17649;BME280;8943;51.110;-4.158;2023-04-29T12:37:48;101625.19;;;23.41;41.30
17649;BME280;8943;51.110;-4.158;2023-04-29T12:40:18;101619.94;;;23.39;41.60
17649;BME280;8943;51.110;-4.158;2023-04-29T12:42:47;101626.84;;;23.58;41.68
17649;BME280;8943;51.110;-4.158;2023-04-29T12:45:26;101619.16;;;23.70;41.89
17649;BME280;8943;51.110;-4.158;2023-04-29T12:47:56;101618.72;;;23.89;41.76
17649;BME280;8943;51.110;-4.158;2023-04-29T12:50:31;101624.31;;;23.96;41.43
17649;BME280;8943;51.110;-4.158;2023-04-29T12:53:01;101623.06;;;24.07;41.24
17649;BME280;8943;51.110;-4.158;2023-04-29T12:55:31;101624.63;;;24.24;41.68
17649;BME280;8943;51.110;-4.158;2023-04-29T12:58:00;101631.63;;;24.50;41.09
17649;BME280;8943;51.110;-4.158;2023-04-29T13:00:29;101629.63;;;24.66;40.59
17649;BME280;8943;51.110;-4.158;2023-04-29T13:02:58;101630.13;;;24.70;40.97
17649;BME280;8943;51.110;-4.158;2023-04-29T13:05:27;101632.97;;;24.91;40.62
17649;BME280;8943;51.110;-4.158;2023-04-29T13:07:57;101628.19;;;24.93;39.79
17649;BME280;8943;51.110;-4.158;2023-04-29T13:10:25;101627.84;;;24.74;39.80
17649;BME280;8943;51.110;-4.158;2023-04-29T13:12:54;101630.63;;;24.51;39.44
17649;BME280;8943;51.110;-4.158;2023-04-29T13:15:23;101632.72;;;24.09;39.80
17649;BME280;8943;51.110;-4.158;2023-04-29T13:17:51;101632.44;;;23.65;39.65
17649;BME280;8943;51.110;-4.158;2023-04-29T13:20:21;101628.63;;;23.27;39.90
17649;BME280;8943;51.110;-4.158;2023-04-29T13:22:49;101631.22;;;22.96;40.55
17649;BME280;8943;51.110;-4.158;2023-04-29T13:25:20;101636.13;;;22.68;40.96
17649;BME280;8943;51.110;-4.158;2023-04-29T13:27:48;101625.44;;;22.50;41.39
17649;BME280;8943;51.110;-4.158;2023-04-29T13:30:17;101628.63;;;22.29;41.70
17649;BME280;8943;51.110;-4.158;2023-04-29T13:32:45;101623.69;;;22.24;41.97
17649;BME280;8943;51.110;-4.158;2023-04-29T13:35:22;101631.19;;;22.30;42.38
17649;BME280;8943;51.110;-4.158;2023-04-29T13:37:50;101617.97;;;22.44;42.50
17649;BME280;8943;51.110;-4.158;2023-04-29T13:40:20;101620.69;;;22.60;42.49
17649;BME280;8943;51.110;-4.158;2023-04-29T13:42:53;101617.28;;;22.82;42.73
17649;BME280;8943;51.110;-4.158;2023-04-29T13:45:32;101619.09;;;23.23;42.79
17649;BME280;8943;51.110;-4.158;2023-04-29T13:48:05;101612.22;;;23.51;42.02
17649;BME280;8943;51.110;-4.158;2023-04-29T13:50:54;101619.47;;;23.75;41.63
17649;BME280;8943;51.110;-4.158;2023-04-29T13:53:42;101610.75;;;23.88;42.01
17649;BME280;8943;51.110;-4.158;2023-04-29T13:56:33;101604.59;;;23.86;43.91
17649;BME280;8943;51.110;-4.158;2023-04-29T13:59:05;101614.03;;;24.60;45.16
17649;BME280;8943;51.110;-4.158;2023-04-29T14:01:36;101608.22;;;25.60;44.45
17649;BME280;8943;51.110;-4.158;2023-04-29T14:04:25;101609.34;;;26.81;43.66
17649;BME280;8943;51.110;-4.158;2023-04-29T14:06:54;101604.16;;;28.04;42.33
17649;BME280;8943;51.110;-4.158;2023-04-29T14:09:23;101603.22;;;28.91;39.90
17649;BME280;8943;51.110;-4.158;2023-04-29T14:11:54;101607.16;;;29.41;37.73
17649;BME280;8943;51.110;-4.158;2023-04-29T14:14:23;101600.97;;;29.72;36.86
17649;BME280;8943;51.110;-4.158;2023-04-29T14:16:51;101601.53;;;29.88;35.27
17649;BME280;8943;51.110;-4.158;2023-04-29T14:19:20;101603.34;;;30.00;34.32
17649;BME280;8943;51.110;-4.158;2023-04-29T14:21:49;101598.84;;;29.74;33.34
17649;BME280;8943;51.110;-4.158;2023-04-29T14:24:18;101599.38;;;29.38;33.48
17649;BME280;8943;51.110;-4.158;2023-04-29T14:26:46;101599.63;;;28.90;33.41
17649;BME280;8943;51.110;-4.158;2023-04-29T14:29:16;101597.72;;;28.38;33.35
17649;BME280;8943;51.110;-4.158;2023-04-29T14:31:45;101596.50;;;27.79;33.77
17649;BME280;8943;51.110;-4.158;2023-04-29T14:34:14;101613.13;;;27.36;34.41
17649;BME280;8943;51.110;-4.158;2023-04-29T14:36:45;101606.91;;;26.93;34.95
17649;BME280;8943;51.110;-4.158;2023-04-29T14:39:14;101608.78;;;26.64;35.31
17649;BME280;8943;51.110;-4.158;2023-04-29T14:41:42;101605.84;;;26.44;35.81
17649;BME280;8943;51.110;-4.158;2023-04-29T14:44:11;101607.16;;;26.27;35.77
17649;BME280;8943;51.110;-4.158;2023-04-29T14:46:42;101606.09;;;26.07;35.94
17649;BME280;8943;51.110;-4.158;2023-04-29T14:49:11;101608.31;;;25.82;36.19
17649;BME280;8943;51.110;-4.158;2023-04-29T14:51:40;101597.09;;;25.62;36.43
17649;BME280;8943;51.110;-4.158;2023-04-29T14:54:08;101604.00;;;25.58;36.83
17649;BME280;8943;51.110;-4.158;2023-04-29T14:56:37;101600.13;;;25.52;37.01
17649;BME280;8943;51.110;-4.158;2023-04-29T14:59:06;101599.94;;;25.54;37.27
17649;BME280;8943;51.110;-4.158;2023-04-29T15:01:35;101599.56;;;25.42;37.18
17649;BME280;8943;51.110;-4.158;2023-04-29T15:04:07;101595.34;;;25.25;37.20
17649;BME280;8943;51.110;-4.158;2023-04-29T15:06:36;101590.19;;;25.15;37.60
17649;BME280;8943;51.110;-4.158;2023-04-29T15:09:04;101592.00;;;25.00;37.62
17649;BME280;8943;51.110;-4.158;2023-04-29T15:11:34;101587.19;;;24.87;38.02
17649;BME280;8943;51.110;-4.158;2023-04-29T15:14:05;101593.66;;;24.71;38.00
17649;BME280;8943;51.110;-4.158;2023-04-29T15:16:35;101596.53;;;24.55;38.28
17649;BME280;8943;51.110;-4.158;2023-04-29T15:19:05;101594.09;;;24.37;38.22
17649;BME280;8943;51.110;-4.158;2023-04-29T15:21:34;101588.88;;;24.27;38.50
17649;BME280;8943;51.110;-4.158;2023-04-29T15:24:03;101596.06;;;24.20;38.71
17649;BME280;8943;51.110;-4.158;2023-04-29T15:26:33;101600.19;;;24.16;38.53
17649;BME280;8943;51.110;-4.158;2023-04-29T15:29:01;101602.13;;;24.07;38.63
17649;BME280;8943;51.110;-4.158;2023-04-29T15:31:30;101595.22;;;23.97;39.01
17649;BME280;8943;51.110;-4.158;2023-04-29T15:33:58;101599.53;;;23.83;38.79
17649;BME280;8943;51.110;-4.158;2023-04-29T15:36:30;101604.34;;;23.73;39.04
17649;BME280;8943;51.110;-4.158;2023-04-29T15:39:00;101601.97;;;23.61;39.29
17649;BME280;8943;51.110;-4.158;2023-04-29T15:41:28;101609.88;;;23.48;39.01
17649;BME280;8943;51.110;-4.158;2023-04-29T15:43:56;101590.91;;;23.24;38.48
17649;BME280;8943;51.110;-4.158;2023-04-29T15:46:25;101599.28;;;23.06;39.03
17649;BME280;8943;51.110;-4.158;2023-04-29T15:48:54;101591.66;;;22.93;39.50
17649;BME280;8943;51.110;-4.158;2023-04-29T15:51:23;101593.19;;;22.96;39.57
17649;BME280;8943;51.110;-4.158;2023-04-29T15:53:54;101595.03;;;23.03;39.31
17649;BME280;8943;51.110;-4.158;2023-04-29T15:56:23;101598.91;;;23.17;39.53
17649;BME280;8943;51.110;-4.158;2023-04-29T15:58:51;101592.22;;;23.36;39.45
17649;BME280;8943;51.110;-4.158;2023-04-29T16:01:20;101587.53;;;23.61;39.73
17649;BME280;8943;51.110;-4.158;2023-04-29T16:03:48;101592.19;;;23.92;39.53
17649;BME280;8943;51.110;-4.158;2023-04-29T16:06:17;101591.94;;;24.24;39.29
17649;BME280;8943;51.110;-4.158;2023-04-29T16:08:45;101602.03;;;24.47;38.67
17649;BME280;8943;51.110;-4.158;2023-04-29T16:11:18;101595.19;;;24.51;38.41
17649;BME280;8943;51.110;-4.158;2023-04-29T16:13:47;101602.34;;;24.52;38.05
17649;BME280;8943;51.110;-4.158;2023-04-29T16:16:16;101593.19;;;24.45;37.95
17649;BME280;8943;51.110;-4.158;2023-04-29T16:18:44;101597.00;;;24.35;37.91
17649;BME280;8943;51.110;-4.158;2023-04-29T16:21:13;101592.69;;;24.18;38.38
17649;BME280;8943;51.110;-4.158;2023-04-29T16:23:41;101602.72;;;24.18;38.51
17649;BME280;8943;51.110;-4.158;2023-04-29T16:26:10;101596.13;;;24.12;38.25
17649;BME280;8943;51.110;-4.158;2023-04-29T16:28:40;101600.97;;;24.02;38.20
17649;BME280;8943;51.110;-4.158;2023-04-29T16:31:08;101602.09;;;23.76;38.41
17649;BME280;8943;51.110;-4.158;2023-04-29T16:33:38;101602.50;;;23.57;38.70
17649;BME280;8943;51.110;-4.158;2023-04-29T16:36:07;101600.69;;;23.41;39.08
17649;BME280;8943;51.110;-4.158;2023-04-29T16:38:36;101600.94;;;23.23;39.39
17649;BME280;8943;51.110;-4.158;2023-04-29T16:41:04;101596.22;;;23.09;39.59
17649;BME280;8943;51.110;-4.158;2023-04-29T16:43:33;101598.09;;;23.00;39.86
17649;BME280;8943;51.110;-4.158;2023-04-29T16:46:04;101595.38;;;22.92;40.04
17649;BME280;8943;51.110;-4.158;2023-04-29T16:48:32;101601.00;;;22.74;40.07
17649;BME280;8943;51.110;-4.158;2023-04-29T16:51:01;101596.91;;;22.62;40.32
17649;BME280;8943;51.110;-4.158;2023-04-29T16:53:30;101592.84;;;22.50;40.23
17649;BME280;8943;51.110;-4.158;2023-04-29T16:55:58;101585.22;;;22.70;40.89
17649;BME280;8943;51.110;-4.158;2023-04-29T16:58:27;101590.78;;;23.09;41.12
17649;BME280;8943;51.110;-4.158;2023-04-29T17:00:55;101589.03;;;23.24;41.17
17649;BME280;8943;51.110;-4.158;2023-04-29T17:03:26;101586.38;;;23.55;40.83
17649;BME280;8943;51.110;-4.158;2023-04-29T17:05:54;101582.13;;;23.53;41.16
17649;BME280;8943;51.110;-4.158;2023-04-29T17:08:23;101591.72;;;24.11;42.44
17649;BME280;8943;51.110;-4.158;2023-04-29T17:10:51;101577.47;;;25.07;41.42
17649;BME280;8943;51.110;-4.158;2023-04-29T17:13:20;101577.25;;;26.04;40.59
17649;BME280;8943;51.110;-4.158;2023-04-29T17:15:49;101574.56;;;27.03;39.57
17649;BME280;8943;51.110;-4.158;2023-04-29T17:18:17;101579.28;;;27.98;38.33
17649;BME280;8943;51.110;-4.158;2023-04-29T17:20:47;101582.13;;;28.85;36.99
17649;BME280;8943;51.110;-4.158;2023-04-29T17:23:16;101575.44;;;29.59;35.23
17649;BME280;8943;51.110;-4.158;2023-04-29T17:25:45;101585.72;;;30.15;34.58
17649;BME280;8943;51.110;-4.158;2023-04-29T17:28:13;101572.63;;;30.73;34.13
17649;BME280;8943;51.110;-4.158;2023-04-29T17:30:42;101574.63;;;31.28;33.01
17649;BME280;8943;51.110;-4.158;2023-04-29T17:33:10;101572.44;;;31.67;32.77
17649;BME280;8943;51.110;-4.158;2023-04-29T17:35:40;101568.09;;;31.77;31.52
17649;BME280;8943;51.110;-4.158;2023-04-29T17:38:10;101566.22;;;31.71;30.75
17649;BME280;8943;51.110;-4.158;2023-04-29T17:40:39;101565.41;;;31.52;30.70
17649;BME280;8943;51.110;-4.158;2023-04-29T17:43:09;101567.72;;;31.37;30.63
17649;BME280;8943;51.110;-4.158;2023-04-29T17:45:38;101569.16;;;31.21;30.64
17649;BME280;8943;51.110;-4.158;2023-04-29T17:48:07;101563.88;;;31.01;30.19
17649;BME280;8943;51.110;-4.158;2023-04-29T17:50:36;101564.47;;;30.85;30.76
17649;BME280;8943;51.110;-4.158;2023-04-29T17:53:06;101568.19;;;30.72;30.42
17649;BME280;8943;51.110;-4.158;2023-04-29T17:55:38;101564.59;;;30.72;29.77
17649;BME280;8943;51.110;-4.158;2023-04-29T17:58:09;101569.41;;;30.51;30.28
17649;BME280;8943;51.110;-4.158;2023-04-29T18:00:38;101565.63;;;30.21;31.23
17649;BME280;8943;51.110;-4.158;2023-04-29T18:03:07;101573.50;;;30.04;31.15
17649;BME280;8943;51.110;-4.158;2023-04-29T18:05:35;101565.88;;;30.06;30.46
17649;BME280;8943;51.110;-4.158;2023-04-29T18:08:04;101558.81;;;29.85;30.34
17649;BME280;8943;51.110;-4.158;2023-04-29T18:10:33;101556.72;;;29.29;30.71
17649;BME280;8943;51.110;-4.158;2023-04-29T18:13:04;101555.75;;;28.64;30.91
17649;BME280;8943;51.110;-4.158;2023-04-29T18:15:33;101559.88;;;28.00;31.72
17649;BME280;8943;51.110;-4.158;2023-04-29T18:18:01;101557.56;;;27.42;32.66
17649;BME280;8943;51.110;-4.158;2023-04-29T18:20:30;101552.84;;;26.95;32.94
17649;BME280;8943;51.110;-4.158;2023-04-29T18:22:58;101551.91;;;26.53;33.51
17649;BME280;8943;51.110;-4.158;2023-04-29T18:25:27;101545.69;;;26.16;34.11
17649;BME280;8943;51.110;-4.158;2023-04-29T18:27:57;101561.72;;;25.83;34.65
17649;BME280;8943;51.110;-4.158;2023-04-29T18:30:47;101563.66;;;25.38;35.11
17649;BME280;8943;51.110;-4.158;2023-04-29T18:33:19;101564.34;;;25.03;35.86
17649;BME280;8943;51.110;-4.158;2023-04-29T18:35:49;101565.25;;;24.65;36.14
17649;BME280;8943;51.110;-4.158;2023-04-29T18:38:17;101561.22;;;24.38;36.55
17649;BME280;8943;51.110;-4.158;2023-04-29T18:40:46;101568.22;;;24.10;37.16
17649;BME280;8943;51.110;-4.158;2023-04-29T18:43:15;101567.03;;;23.81;37.72
17649;BME280;8943;51.110;-4.158;2023-04-29T18:45:51;101563.88;;;23.61;38.12
17649;BME280;8943;51.110;-4.158;2023-04-29T18:48:20;101568.06;;;23.41;38.73
17649;BME280;8943;51.110;-4.158;2023-04-29T18:50:50;101568.47;;;23.22;38.75
17649;BME280;8943;51.110;-4.158;2023-04-29T18:53:20;101569.56;;;23.04;39.19
17649;BME280;8943;51.110;-4.158;2023-04-29T18:55:48;101573.13;;;22.88;39.26
17649;BME280;8943;51.110;-4.158;2023-04-29T18:58:17;101565.69;;;22.74;39.76
17649;BME280;8943;51.110;-4.158;2023-04-29T19:00:45;101567.38;;;22.59;40.15
17649;BME280;8943;51.110;-4.158;2023-04-29T19:03:16;101563.31;;;22.47;40.67
17649;BME280;8943;51.110;-4.158;2023-04-29T19:05:45;101574.53;;;22.35;40.82
17649;BME280;8943;51.110;-4.158;2023-04-29T19:08:13;101572.81;;;22.26;41.19
17649;BME280;8943;51.110;-4.158;2023-04-29T19:10:43;101567.38;;;22.18;41.34
17649;BME280;8943;51.110;-4.158;2023-04-29T19:13:12;101564.09;;;22.06;41.56
17649;BME280;8943;51.110;-4.158;2023-04-29T19:15:42;101568.84;;;21.96;41.77
17649;BME280;8943;51.110;-4.158;2023-04-29T19:18:10;101570.81;;;21.86;41.89
17649;BME280;8943;51.110;-4.158;2023-04-29T19:20:41;101573.00;;;21.74;42.53
17649;BME280;8943;51.110;-4.158;2023-04-29T19:23:09;101570.13;;;21.68;42.39
17649;BME280;8943;51.110;-4.158;2023-04-29T19:25:38;101568.38;;;21.58;42.52
17649;BME280;8943;51.110;-4.158;2023-04-29T19:28:06;101571.41;;;21.47;42.91
17649;BME280;8943;51.110;-4.158;2023-04-29T19:30:36;101571.53;;;21.38;43.10
17649;BME280;8943;51.110;-4.158;2023-04-29T19:33:07;101570.75;;;21.27;43.41
17649;BME280;8943;51.110;-4.158;2023-04-29T19:35:35;101574.28;;;21.20;43.41
17649;BME280;8943;51.110;-4.158;2023-04-29T19:38:05;101575.41;;;21.09;43.61
17649;BME280;8943;51.110;-4.158;2023-04-29T19:40:33;101587.03;;;21.01;43.62
17649;BME280;8943;51.110;-4.158;2023-04-29T19:43:02;101593.28;;;20.94;43.91
17649;BME280;8943;51.110;-4.158;2023-04-29T19:45:31;101591.19;;;20.88;44.32
17649;BME280;8943;51.110;-4.158;2023-04-29T19:48:01;101591.44;;;20.76;44.08
17649;BME280;8943;51.110;-4.158;2023-04-29T19:50:30;101603.59;;;20.72;44.55
17649;BME280;8943;51.110;-4.158;2023-04-29T19:52:58;101599.84;;;20.65;44.54
17649;BME280;8943;51.110;-4.158;2023-04-29T19:55:28;101603.84;;;20.61;44.64
17649;BME280;8943;51.110;-4.158;2023-04-29T19:57:57;101599.22;;;20.53;44.41
17649;BME280;8943;51.110;-4.158;2023-04-29T20:00:25;101604.13;;;20.50;44.99
17649;BME280;8943;51.110;-4.158;2023-04-29T20:02:53;101599.97;;;20.46;45.08
17649;BME280;8943;51.110;-4.158;2023-04-29T20:05:22;101606.69;;;20.42;45.02
17649;BME280;8943;51.110;-4.158;2023-04-29T20:07:51;101607.63;;;20.32;45.37
17649;BME280;8943;51.110;-4.158;2023-04-29T20:10:19;101610.97;;;20.26;45.34
17649;BME280;8943;51.110;-4.158;2023-04-29T20:12:49;101615.66;;;20.24;45.35
17649;BME280;8943;51.110;-4.158;2023-04-29T20:15:18;101620.56;;;20.21;45.59
17649;BME280;8943;51.110;-4.158;2023-04-29T20:17:46;101622.88;;;20.16;45.67
17649;BME280;8943;51.110;-4.158;2023-04-29T20:20:17;101628.88;;;20.10;45.75
17649;BME280;8943;51.110;-4.158;2023-04-29T20:22:46;101634.06;;;20.03;45.62
17649;BME280;8943;51.110;-4.158;2023-04-29T20:25:16;101635.25;;;19.91;45.82
17649;BME280;8943;51.110;-4.158;2023-04-29T20:27:51;101636.66;;;19.95;45.81
17649;BME280;8943;51.110;-4.158;2023-04-29T20:30:21;101641.28;;;19.85;45.94
17649;BME280;8943;51.110;-4.158;2023-04-29T20:32:50;101640.31;;;19.76;45.84
17649;BME280;8943;51.110;-4.158;2023-04-29T20:35:21;101642.50;;;19.72;46.03
17649;BME280;8943;51.110;-4.158;2023-04-29T20:37:51;101642.66;;;19.61;46.11
17649;BME280;8943;51.110;-4.158;2023-04-29T20:40:21;101636.81;;;19.56;46.29
17649;BME280;8943;51.110;-4.158;2023-04-29T20:43:09;101633.03;;;19.49;46.54
17649;BME280;8943;51.110;-4.158;2023-04-29T20:45:38;101640.72;;;19.44;46.26
17649;BME280;8943;51.110;-4.158;2023-04-29T20:48:12;101642.88;;;19.40;46.56
17649;BME280;8943;51.110;-4.158;2023-04-29T20:50:41;101640.59;;;19.36;46.43
17649;BME280;8943;51.110;-4.158;2023-04-29T20:53:10;101636.47;;;19.32;46.74
17649;BME280;8943;51.110;-4.158;2023-04-29T20:55:39;101630.13;;;19.23;46.57
17649;BME280;8943;51.110;-4.158;2023-04-29T20:58:13;101633.81;;;19.22;46.84
17649;BME280;8943;51.110;-4.158;2023-04-29T21:00:42;101632.13;;;19.21;46.82
17649;BME280;8943;51.110;-4.158;2023-04-29T21:03:14;101629.16;;;19.14;46.89
17649;BME280;8943;51.110;-4.158;2023-04-29T21:05:43;101641.41;;;19.09;46.88
17649;BME280;8943;51.110;-4.158;2023-04-29T21:08:14;101636.72;;;19.01;46.91